Data for 08/17/2005

Time Sea-Level Adjusted Pressure Absolute Pressure Temperature Relative Humidity Dew Point   
(mb) (inHg) (mb) (inHg) (C) (F) (%) (C) (F)
00:05 1016 30 845 24.95 17.4 63.2 51 7.1 44.8
00:10 1016 30 845 24.95 17.2 63 52 7.3 45.1
00:15 1016 30 845 24.95 17.2 62.9 52 7.2 45
00:20 1016 30 845 24.95 17.1 62.9 50 6.8 44.2
00:25 1016 30 845 24.95 17.3 63.1 51 7.2 44.9
00:30 1016 30 846 24.98 17.2 63 50 6.9 44.4
00:35 1016 30 846 24.98 17.5 63.5 53 7.9 46.2
00:40 1016 30 846 24.98 17.6 63.8 52 7.7 45.9
00:45 1016 30 846 24.98 17.6 63.6 50 7.2 44.9
00:50 1016 30 846 24.98 17.5 63.6 49 6.9 44.4
00:55 1016 30 846 24.98 17.6 63.8 49 7 44.7
01:00 1016 30 846 24.98 17.7 63.8 48 6.7 44
01:05 1016 30 846 24.98 17.9 64.2 49 7.2 44.9
01:10 1016 30 846 24.98 17.3 63.2 52 7.4 45.3
01:15 1016 30 846 24.98 17 62.5 53 7.4 45.3
01:20 1016 30 846 24.98 17 62.5 54 7.6 45.7
01:25 1016 30 846 24.98 17.2 62.9 52 7.2 45
01:30 1016 30 846 24.98 17.4 63.3 53 7.7 45.9
01:35 1016 30 846 24.98 17.3 63.1 52 7.3 45.2
01:40 1016 30 846 24.98 17.2 63 51 7.1 44.7
01:45 1016 30 846 24.98 17.2 63 51 7.2 45
01:50 1016 30 845 24.95 17.3 63.2 50 6.8 44.3
01:55 1016 30 845 24.95 17.5 63.4 53 7.9 46.3
02:00 1016 30 845 24.95 17.5 63.5 50 7.2 44.9
02:05 1016 30 845 24.95 17.4 63.3 52 7.4 45.4
02:10 1016 30 845 24.95 16.9 62.4 54 7.5 45.5
02:15 1016 30 845 24.95 16.5 61.7 58 8.2 46.8
02:20 1016 30 845 24.95 16.5 61.7 54 7.2 44.9
02:25 1016 30 845 24.95 16.4 61.6 56 7.7 45.8
02:30 1016 30 845 24.95 16.3 61.4 56 7.7 45.8
02:35 1016 30 845 24.95 16.2 61.1 58 8.1 46.6
02:40 1016 30 845 24.95 16.2 61.2 55 7.1 44.9
02:45 1016 30 845 24.95 16.3 61.3 55 7.2 45
02:50 1016 30 845 24.95 16 60.8 57 7.5 45.6
02:55 1016 30 845 24.95 15.7 60.2 58 7.5 45.5
03:00 1016 30 845 24.95 15.6 60 58 7.5 45.4
03:05 1016 30 845 24.95 15.7 60.2 56 7 44.5
03:10 1016 30 845 24.95 15.9 60.7 55 7.1 44.7
03:15 1016 30 845 24.95 15.6 60.1 57 7.3 45.1
03:20 1016 30 845 24.95 15.1 59.2 60 7.4 45.3
03:25 1016 30 845 24.95 14.9 58.9 59 7.2 44.9
03:30 1016 30 845 24.95 15.3 59.5 57 7 44.6
03:35 1016 30 845 24.95 15.3 59.5 58 7.2 45
03:40 1016 30 845 24.95 15.1 59.1 59 7.2 44.9
03:45 1016 30 845 24.95 15.1 59.2 58 7 44.6
03:50 1016 30 845 24.95 15.1 59.3 59 7.3 45.1
03:55 1016 30 845 24.95 15 58.9 60 7.3 45.1
04:00 1016 30 845 24.95 14.8 58.7 61 7.5 45.6
04:05 1016 30 845 24.95 14.5 58.1 63 7.5 45.5
04:10 1016 30 845 24.95 14.5 58 65 8.1 46.6
04:15 1016 30 845 24.95 14.5 58 62 7.3 45.1
04:20 1016 30 845 24.95 14.5 58.1 61 7.3 45.1
04:25 1016 30 845 24.95 14.5 58.1 61 7.2 44.9
04:30 1016 30 845 24.95 14.8 58.6 59 7 44.6
04:35 1016 30 845 24.95 15.2 59.4 58 7.1 44.8
04:40 1016 30 845 24.95 15.2 59.4 58 7.2 45
04:45 1016 30 845 24.95 14.8 58.7 56 6.3 43.3
04:50 1016 30 845 24.95 15.1 59.2 56 6.5 43.7
04:55 1016 30 845 24.95 15.1 59.1 58 6.8 44.3
05:00 1016 30 845 24.95 14.9 58.7 57 6.6 43.8
05:05 1016 30 845 24.95 14.8 58.7 57 6.4 43.5
05:10 1016 30 845 24.95 14.7 58.4 58 6.5 43.8
05:15 1016 30 845 24.95 15.1 59.1 57 6.6 43.9
05:20 1016 30 845 24.95 15.3 59.5 55 6.4 43.6
05:25 1016 30 845 24.95 15.1 59.2 59 7.1 44.8
05:30 1016 30 845 24.95 14.7 58.5 60 7.1 44.8
05:35 1016 30 845 24.95 14.3 57.7 63 7.3 45.1
05:40 1016 30 845 24.95 13.8 56.8 64 7.2 45
05:45 1016 30 845 24.95 13.9 57.1 62 6.9 44.5
05:50 1016 30 845 24.95 14.1 57.3 63 7.3 45.1
05:55 1016 30 845 24.95 13.6 56.5 65 7.2 45
06:00 1016 30 845 24.95 13.4 56 65 7.1 44.7
06:05 1016 30 845 24.95 13.1 55.6 67 7.2 44.9
06:10 1016 30 845 24.95 13.1 55.5 68 7.2 45
06:15 1016 30 845 24.95 13.1 55.6 68 7.4 45.4
06:20 1016 30 845 24.95 13.1 55.5 69 7.5 45.5
06:25 1016 30 845 24.95 12.6 54.7 69 7.1 44.8
06:30 1016 30 845 24.95 12.1 53.9 70 6.8 44.3
06:35 1016 30 845 24.95 12 53.7 69 6.5 43.7
06:40 1016 30 845 24.95 12.3 54.2 66 6.2 43.2
06:45 1016 30 845 24.95 12.9 55.3 65 6.5 43.8
06:50 1016 30 845 24.95 13.2 55.7 66 6.9 44.4
06:55 1016 30 845 24.95 12.8 55 67 6.9 44.4
07:00 1016 30 845 24.95 12.9 55.2 63 6.2 43.2
07:05 1016 30 845 24.95 13.3 55.9 62 6.1 42.9
07:10 1016 30 845 24.95 13.3 55.9 60 5.8 42.5
07:15 1016 30 845 24.95 13.4 56.2 61 6 42.9
07:20 1016 30 845 24.95 13.4 56.1 62 6.3 43.3
07:25 1016 30 845 24.95 13.2 55.7 65 6.7 44.1
07:30 1016 30 845 24.95 13.3 55.9 66 7.1 44.9
07:35 1016 30 845 24.95 13.5 56.2 65 7.2 44.9
07:40 1016 30 845 24.95 13.9 57 64 7.3 45.2
07:45 1016 30 845 24.95 14.1 57.4 64 7.5 45.6
07:50 1016 30 845 24.95 14.4 57.9 63 7.5 45.5
07:55 1016 30 845 24.95 14.7 58.5 62 7.5 45.6
08:00 1016 30 845 24.95 15.1 59.3 60 7.6 45.7
08:05 1016 30 845 24.95 15.6 60 60 7.9 46.1
08:10 1016 30 845 24.95 15.6 60 61 8.3 46.9
08:15 1015 29.97 845 24.95 15.6 60 62 8.5 47.3
08:20 1015 29.97 845 24.95 16 60.9 60 8.3 46.9
08:25 1015 29.97 845 24.95 16.3 61.3 58 8.2 46.7
08:30 1015 29.97 845 24.95 16.4 61.6 57 8.1 46.6
08:35 1016 30 845 24.95 16.3 61.4 60 8.6 47.5
08:40 1016 30 845 24.95 16.7 62.1 62 9.4 48.9
08:45 1016 30 845 24.95 17.1 62.7 59 9 48.2
08:50 1016 30 845 24.95 17.2 62.9 57 8.7 47.7
08:55 1016 30 845 24.95 17.8 64.1 53 8.3 47
09:00 1015 29.97 845 24.95 18.2 64.8 52 8.4 47.1
09:05 1015 29.97 845 24.95 18.4 65.2 51 8.2 46.8
09:10 1015 29.97 845 24.95 18.8 65.8 52 8.9 47.9
09:15 1015 29.97 845 24.95 19.1 66.4 51 8.8 47.9
09:20 1015 29.97 845 24.95 19.4 66.9 50 8.9 48.1
09:25 1015 29.97 845 24.95 19.6 67.3 50 9 48.1
09:30 1015 29.97 845 24.95 19.6 67.3 50 9 48.2
09:35 1015 29.97 844 24.92 19.8 67.6 48 8.6 47.5
09:40 1015 29.97 844 24.92 20.8 69.4 46 8.9 48
09:45 1015 29.97 844 24.92 21.1 69.9 45 8.7 47.6
09:50 1015 29.97 844 24.92 20.2 68.3 47 8.6 47.4
09:55 1015 29.97 844 24.92 20.5 68.9 45 8.3 46.9
10:00 1015 29.97 844 24.92 21.2 70.1 42 8 46.4
10:05 1015 29.97 844 24.92 21.3 70.3 42 7.9 46.1
10:10 1015 29.97 844 24.92 21.7 71.1 40 7.6 45.7
10:15 1015 29.97 844 24.92 21.9 71.4 41 8.2 46.8
10:20 1015 29.97 844 24.92 22.5 72.4 39 7.9 46.2
10:25 1015 29.97 844 24.92 23.1 73.5 38 8.1 46.5
10:30 1015 29.97 844 24.92 23.4 74.1 37 8.2 46.8
10:35 1015 29.97 844 24.92 23.7 74.6 37 8.1 46.6
10:40 1015 29.97 844 24.92 23.2 73.7 40 9 48.1
10:45 1015 29.97 844 24.92 22.6 72.6 40 8.5 47.2
10:50 1015 29.97 844 24.92 21.8 71.3 40 8 46.4
10:55 1015 29.97 844 24.92 21.6 70.9 39 7.2 44.9
11:00 1015 29.97 844 24.92 22.1 71.8 35 6.1 42.9
11:05 1015 29.97 844 24.92 23.3 73.9 34 6.7 44
11:10 1015 29.97 844 24.92 23.8 74.8 33 6.6 43.8
11:15 1015 29.97 844 24.92 23.7 74.6 33 6.7 44
11:20 1015 29.97 844 24.92 24.4 76 32 6.8 44.2
11:25 1014 29.94 844 24.92 25.3 77.5 30 6.9 44.5
11:30 1014 29.94 844 24.92 25.3 77.5 30 6.6 43.9
11:35 1014 29.94 843 24.89 25.1 77.2 30 6.5 43.7
11:40 1014 29.94 843 24.89 25.1 77.2 31 7.2 44.9
11:45 1014 29.94 843 24.89 25.8 78.5 29 6.9 44.5
11:50 1014 29.94 843 24.89 26 78.8 29 6.7 44.1
11:55 1014 29.94 843 24.89 25.5 77.9 30 6.9 44.4
12:00 1014 29.94 843 24.89 25.5 77.8 30 6.6 44
12:05 1014 29.94 843 24.89 26.2 79.1 28 6.4 43.5
12:10 1014 29.94 843 24.89 26 78.7 29 6.7 44.1
12:15 1014 29.94 843 24.89 26.1 78.9 28 6.4 43.6
12:20 1014 29.94 843 24.89 26.3 79.3 28 6.5 43.7
12:25 1013 29.91 843 24.89 26.6 79.8 28 6.9 44.5
12:30 1013 29.91 842 24.86 26.7 80 28 6.8 44.2
12:35 1013 29.91 843 24.89 26.9 80.5 29 7.6 45.6
12:40 1013 29.91 842 24.86 27.2 80.9 28 7.4 45.4
12:45 1013 29.91 842 24.86 27.1 80.9 28 7.4 45.2
12:50 1013 29.91 842 24.86 27.6 81.6 27 7 44.5
12:55 1013 29.91 842 24.86 28.2 82.7 28 8 46.4
13:00 1013 29.91 842 24.86 28.2 82.7 29 8.9 48
13:05 1013 29.91 842 24.86 27.3 81.2 27 7.2 45
13:10 1013 29.91 842 24.86 26.7 80 27 6.6 43.8
13:15 1013 29.91 842 24.86 27.3 81.2 25 6.1 43
13:20 1013 29.91 842 24.86 26.8 80.3 24 4.7 40.5
13:25 1013 29.91 842 24.86 26.5 79.6 25 5.1 41.3
13:30 1013 29.91 842 24.86 26.8 80.3 25 5.5 41.9
13:35 1013 29.91 842 24.86 26.1 78.9 26 5.1 41.2
13:40 1013 29.91 842 24.86 25.5 77.8 27 5.5 42
13:45 1013 29.91 842 24.86 25.8 78.4 26 4.9 40.9
13:50 1013 29.91 842 24.86 26.3 79.4 25 4.9 40.7
13:55 1013 29.91 842 24.86 26.9 80.4 24 5.1 41.1
14:00 1012 29.88 842 24.86 26.6 79.8 26 5.8 42.4
14:05 1012 29.88 842 24.86 26.7 80.1 24 4.9 40.8
14:10 1012 29.88 842 24.86 27 80.5 25 5.8 42.4
14:15 1012 29.88 841 24.83 26.5 79.7 25 5.4 41.7
14:20 1012 29.88 841 24.83 26.3 79.4 24 4.4 40
14:25 1012 29.88 841 24.83 26.6 79.9 24 4.8 40.7
14:30 1012 29.88 841 24.83 27 80.5 25 5.4 41.6
14:35 1012 29.88 841 24.83 26.8 80.2 25 5.6 42.1
14:40 1012 29.88 841 24.83 26.9 80.5 26 6 42.9
14:45 1012 29.88 841 24.83 26.7 80.1 25 5.5 41.9
14:50 1012 29.88 841 24.83 26.4 79.5 25 4.9 40.7
14:55 1012 29.88 841 24.83 26.6 79.8 25 5 41
15:00 1011 29.85 841 24.83 26.7 80 25 5.2 41.4
15:05 1011 29.85 841 24.83 27.2 81 23 4.7 40.5
15:10 1011 29.85 840 24.81 26.9 80.5 25 5.3 41.5
15:15 1011 29.85 840 24.81 26.8 80.2 25 5.4 41.7
15:20 1011 29.85 840 24.81 26.8 80.3 24 5 40.9
15:25 1011 29.85 840 24.81 26.5 79.8 25 5 40.9
15:30 1011 29.85 841 24.83 26.6 79.8 26 5.8 42.5
15:35 1011 29.85 841 24.83 26.5 79.6 25 5 40.9
15:40 1011 29.85 841 24.83 26.2 79.2 26 5.6 42.1
15:45 1012 29.88 841 24.83 26.1 78.9 28 6.4 43.6
15:50 1012 29.88 841 24.83 25.9 78.7 30 7.3 45.2
15:55 1012 29.88 841 24.83 23.1 73.6 40 9 48.1
16:00 1012 29.88 841 24.83 20.7 69.3 44 8.3 46.9
16:05 1011 29.85 841 24.83 19.9 67.8 43 7 44.7
16:10 1012 29.88 841 24.83 21.1 69.9 35 5 41.1
16:15 1012 29.88 841 24.83 21.7 71 42 8.3 47
16:20 1012 29.88 841 24.83 21.3 70.3 38 6.5 43.7
16:25 1012 29.88 841 24.83 21.5 70.7 39 7.2 44.9
16:30 1012 29.88 841 24.83 21.7 71.1 38 6.8 44.3
16:35 1012 29.88 841 24.83 21.6 70.9 37 6.7 44
16:40 1012 29.88 841 24.83 21.5 70.7 37 6.3 43.4
16:45 1013 29.91 842 24.86 21.8 71.3 40 7.6 45.7
16:50 1013 29.91 843 24.89 20.4 68.7 45 8.3 47
16:55 1013 29.91 843 24.89 19.1 66.3 50 8.5 47.3
17:00 1013 29.91 842 24.86 18.9 66 55 9.8 49.6
17:05 1014 29.94 843 24.89 18.4 65.1 55 9.4 48.9
17:10 1014 29.94 843 24.89 17.9 64.3 60 10.1 50.2
17:15 1014 29.94 843 24.89 16.7 62.1 70 11.3 52.3
17:20 1014 29.94 843 24.89 15.6 60.1 74 11.1 52
17:25 1014 29.94 843 24.89 15.4 59.6 78 11.6 52.9
17:30 1013 29.91 842 24.86 15.3 59.6 81 12.1 53.8
17:35 1013 29.91 842 24.86 15.4 59.7 81 12.2 54
17:40 1013 29.91 842 24.86 15.3 59.5 81 12.1 53.7
17:45 1013 29.91 842 24.86 15.6 60.1 79 12 53.6
17:50 1012 29.88 841 24.83 15.9 60.5 78 12 53.7
17:55 1012 29.88 841 24.83 16 60.8 78 12.2 54
18:00 1012 29.88 841 24.83 16 60.9 79 12.4 54.4
18:05 1012 29.88 842 24.86 16 60.9 78 12.3 54.2
18:10 1012 29.88 841 24.83 16 60.9 76 11.8 53.3
18:15 1012 29.88 842 24.86 16.2 61.2 74 11.7 53
18:20 1012 29.88 842 24.86 16.3 61.3 72 11.3 52.4
18:25 1013 29.91 842 24.86 16.4 61.4 71 11.2 52.2
18:30 1013 29.91 842 24.86 16.5 61.7 71 11.3 52.4
18:35 1013 29.91 842 24.86 16.5 61.7 72 11.5 52.6
18:40 1013 29.91 842 24.86 16.6 61.8 72 11.5 52.7
18:45 1013 29.91 842 24.86 16.6 61.8 71 11.3 52.3
18:50 1013 29.91 842 24.86 16.7 62 66 10.4 50.8
18:55 1013 29.91 842 24.86 17 62.6 63 9.9 49.8
19:00 1013 29.91 842 24.86 17.3 63.2 62 10.2 50.3
19:05 1013 29.91 842 24.86 17.4 63.3 60 9.5 49.2
19:10 1012 29.88 842 24.86 17.5 63.6 59 9.6 49.3
19:15 1012 29.88 842 24.86 17.6 63.7 59 9.7 49.4
19:20 1012 29.88 842 24.86 17.6 63.6 63 10.5 51
19:25 1012 29.88 841 24.83 17.2 62.9 64 10.4 50.7
19:30 1012 29.88 841 24.83 16.8 62.2 69 11.1 51.9
19:35 1012 29.88 841 24.83 16.3 61.4 72 11.2 52.2
19:40 1012 29.88 842 24.86 16.1 61 73 11.3 52.3
19:45 1012 29.88 842 24.86 16 60.9 72 11 51.8
19:50 1012 29.88 842 24.86 16.2 61.1 69 10.5 51
19:55 1012 29.88 842 24.86 16.5 61.6 67 10.4 50.7
20:00 1013 29.91 842 24.86 16.6 61.8 66 10.3 50.5
20:05 1013 29.91 842 24.86 16.5 61.7 66 10.3 50.6
20:10 1013 29.91 842 24.86 16.6 61.8 66 10.3 50.6
20:15 1013 29.91 842 24.86 16.5 61.6 68 10.7 51.2
20:20 1013 29.91 842 24.86 16.6 61.8 70 11.2 52.2
20:25 1013 29.91 843 24.89 16.6 61.9 70 11.1 52.1
20:30 1013 29.91 843 24.89 16.7 62.1 69 11.1 51.9
20:35 1014 29.94 843 24.89 16.8 62.3 66 10.6 51
20:40 1014 29.94 843 24.89 16.8 62.2 67 10.7 51.3
20:45 1014 29.94 843 24.89 16.6 61.9 70 11.2 52.2
20:50 1014 29.94 843 24.89 16.3 61.4 74 11.7 53
20:55 1014 29.94 844 24.92 16.2 61.1 75 11.7 53.1
21:00 1015 29.97 844 24.92 16 60.9 74 11.5 52.7
21:05 1015 29.97 844 24.92 16 60.7 74 11.3 52.4
21:10 1015 29.97 844 24.92 15.8 60.4 71 10.7 51.2
21:15 1015 29.97 844 24.92 15.6 60 71 10.4 50.8
21:20 1015 29.97 844 24.92 15.3 59.6 71 10.1 50.2
21:25 1015 29.97 844 24.92 15.2 59.3 71 10 50
21:30 1015 29.97 844 24.92 15.2 59.4 72 10.2 50.4
21:35 1015 29.97 844 24.92 15 59.1 73 10.4 50.7
21:40 1016 30 845 24.95 14.8 58.6 76 10.6 51
21:45 1016 30 845 24.95 14.3 57.8 78 10.5 51
21:50 1016 30 845 24.95 14.2 57.6 78 10.5 50.8
21:55 1016 30 845 24.95 14.1 57.3 80 10.8 51.4
22:00 1016 30 846 24.98 13.7 56.6 84 10.9 51.7
22:05 1016 30 845 24.95 13.1 55.6 89 11.4 52.5
22:10 1016 30 845 24.95 12.7 54.8 91 11.3 52.3
22:15 1016 30 845 24.95 12.4 54.3 90 10.8 51.4
22:20 1016 30 845 24.95 12.3 54.2 89 10.7 51.2
22:25 1016 30 845 24.95 12.4 54.3 87 10.3 50.6
22:30 1016 30 845 24.95 12.5 54.4 88 10.6 51.1
22:35 1016 30 845 24.95 12.4 54.3 87 10.3 50.5
22:40 1016 30 845 24.95 12.5 54.4 86 10.2 50.4
22:45 1016 30 846 24.98 12.5 54.5 83 9.8 49.7
22:50 1017 30.03 846 24.98 12.6 54.6 86 10.4 50.7
22:55 1017 30.03 846 24.98 12.5 54.5 87 10.5 50.8
23:00 1017 30.03 846 24.98 12.4 54.3 86 10.2 50.4
23:05 1017 30.03 846 24.98 12.4 54.3 86 10.1 50.2
23:10 1017 30.03 846 24.98 12.4 54.4 86 10.2 50.4
23:15 1017 30.03 846 24.98 12.4 54.2 87 10.3 50.6
23:20 1017 30.03 846 24.98 12.3 54.2 86 10.2 50.3
23:25 1017 30.03 846 24.98 12.4 54.2 89 10.5 51
23:30 1017 30.03 846 24.98 12.4 54.2 91 10.9 51.7
23:35 1017 30.03 846 24.98 12.5 54.4 89 10.7 51.2
23:40 1017 30.03 846 24.98 12.4 54.4 87 10.4 50.7
23:45 1017 30.03 846 24.98 12.4 54.4 89 10.7 51.3
23:50 1017 30.03 846 24.98 12.3 54.2 89 10.6 51.1
23:55 1017 30.03 846 24.98 12.3 54.1 91 10.8 51.4
24:00 1017 30.03 846 24.98 12.1 53.7 91 10.6 51.1